createdAt,value
2022-11-19T00:01:27.615Z,22.08
2022-11-19T00:03:55.252Z,19.25
2022-11-19T00:06:25.443Z,20.15
2022-11-19T00:08:53.064Z,19.05
2022-11-19T00:11:44.236Z,17.70
2022-11-19T00:14:13.787Z,22.17
2022-11-19T00:16:46.745Z,21.38
2022-11-19T00:19:14.792Z,16.67
2022-11-19T00:21:41.971Z,18.10
2022-11-19T00:24:09.560Z,20.05
2022-11-19T00:26:37.159Z,18.33
2022-11-19T00:29:04.367Z,23.17
2022-11-19T00:31:32.449Z,18.33
2022-11-19T00:33:59.636Z,20.27
2022-11-19T00:36:26.773Z,22.20
2022-11-19T00:38:54.632Z,25.02
2022-11-19T00:41:21.843Z,25.83
2022-11-19T00:43:49.979Z,19.13
2022-11-19T00:46:17.151Z,21.10
2022-11-19T00:48:44.935Z,49.25
2022-11-19T00:51:12.823Z,26.98
2022-11-19T00:53:40.019Z,25.30
2022-11-19T00:56:10.297Z,17.85
2022-11-19T00:58:37.634Z,25.50
2022-11-19T01:01:06.135Z,24.73
2022-11-19T01:03:33.425Z,19.55
2022-11-19T01:06:00.638Z,26.60
2022-11-19T01:08:27.954Z,23.08
2022-11-19T01:10:55.175Z,32.28
2022-11-19T01:13:37.579Z,45.47
2022-11-19T01:16:08.559Z,44.47
2022-11-19T01:18:36.843Z,19.98
2022-11-19T01:21:05.210Z,61.72
2022-11-19T01:23:33.650Z,18.60
2022-11-19T01:26:01.506Z,23.63
2022-11-19T01:28:29.811Z,24.88
2022-11-19T01:30:57.401Z,22.08
2022-11-19T01:33:24.729Z,74.03
2022-11-19T01:36:03.581Z,19.52
2022-11-19T01:38:31.336Z,26.25
2022-11-19T01:40:58.818Z,18.70
2022-11-19T01:43:44.827Z,15.15
2022-11-19T01:46:23.955Z,20.17
2022-11-19T01:49:12.361Z,12.00
2022-11-19T01:51:59.085Z,14.77
2022-11-19T01:54:31.496Z,12.57
2022-11-19T01:57:05.757Z,9.93
2022-11-19T02:02:00.739Z,9.80
2022-11-19T02:04:29.050Z,11.45
2022-11-19T02:06:57.778Z,11.95
2022-11-19T02:09:27.228Z,13.40
2022-11-19T02:12:02.954Z,13.68
2022-11-19T02:15:01.052Z,16.48
2022-11-19T02:17:36.762Z,12.25
2022-11-19T02:20:28.002Z,12.75
2022-11-19T02:23:13.071Z,11.82
2022-11-19T02:26:01.179Z,11.80
2022-11-19T02:28:36.100Z,13.20
2022-11-19T02:31:15.742Z,13.85
2022-11-19T02:33:52.580Z,16.13
2022-11-19T02:36:29.377Z,13.73
2022-11-19T02:39:15.334Z,12.20
2022-11-19T02:41:55.881Z,14.43
2022-11-19T02:45:02.385Z,16.35
2022-11-19T02:48:03.527Z,10.38
2022-11-19T02:50:49.445Z,13.55
2022-11-19T02:53:16.920Z,11.35
2022-11-19T02:56:04.055Z,14.05
2022-11-19T02:58:51.312Z,22.50
2022-11-19T03:01:39.368Z,17.27
2022-11-19T03:04:27.391Z,11.77
2022-11-19T03:06:56.317Z,8.88
2022-11-19T03:09:24.097Z,6.70
2022-11-19T03:12:15.941Z,5.82
2022-11-19T03:15:24.092Z,5.95
2022-11-19T03:18:23.460Z,6.35
2022-11-19T03:21:15.841Z,5.95
2022-11-19T03:23:53.230Z,6.40
2022-11-19T03:26:30.697Z,6.30
2022-11-19T03:29:01.809Z,6.20
2022-11-19T03:31:31.792Z,5.57
2022-11-19T03:34:03.266Z,4.38
2022-11-19T03:36:37.616Z,5.47
2022-11-19T03:39:09.416Z,6.25
2022-11-19T03:41:40.382Z,6.30
2022-11-19T03:44:28.867Z,3.95
2022-11-19T03:47:01.101Z,6.03
2022-11-19T03:49:32.219Z,5.30
2022-11-19T03:52:10.470Z,3.88
2022-11-19T03:54:39.544Z,5.13
2022-11-19T03:57:08.004Z,5.32
2022-11-19T03:59:35.537Z,5.40
2022-11-19T04:02:08.106Z,6.35
2022-11-19T04:04:38.023Z,6.07
2022-11-19T04:07:14.021Z,6.35
2022-11-19T04:09:42.453Z,5.82
2022-11-19T04:12:19.361Z,6.95
2022-11-19T04:14:46.833Z,6.47
2022-11-19T04:17:14.344Z,5.68
2022-11-19T04:19:41.655Z,7.93
2022-11-19T04:22:08.889Z,6.60
2022-11-19T04:24:36.107Z,8.73
2022-11-19T04:27:03.557Z,7.10
2022-11-19T04:29:30.570Z,6.93
2022-11-19T04:31:57.587Z,7.60
2022-11-19T04:34:24.705Z,10.98
2022-11-19T04:36:51.828Z,11.00
2022-11-19T04:39:19.335Z,10.05
2022-11-19T04:41:46.565Z,9.15
2022-11-19T04:44:13.587Z,13.82
2022-11-19T04:46:40.650Z,10.95
2022-11-19T04:49:07.783Z,11.60
2022-11-19T04:51:34.904Z,12.07
2022-11-19T04:54:02.092Z,12.00
2022-11-19T04:56:29.325Z,14.90
2022-11-19T04:58:56.461Z,13.57
2022-11-19T05:01:23.703Z,13.88
2022-11-19T05:03:50.935Z,12.27
2022-11-19T05:06:18.041Z,14.27
2022-11-19T05:08:45.477Z,15.85
2022-11-19T05:11:12.794Z,13.13
2022-11-19T05:13:39.912Z,14.25
2022-11-19T05:16:07.165Z,14.68
2022-11-19T05:18:34.360Z,13.98
2022-11-19T05:21:01.595Z,13.85
2022-11-19T05:23:28.793Z,15.50
2022-11-19T05:25:55.870Z,19.98
2022-11-19T05:28:37.543Z,14.77
2022-11-19T05:31:06.086Z,15.48
2022-11-19T05:33:34.386Z,16.02
2022-11-19T05:36:03.010Z,16.65
2022-11-19T05:38:30.256Z,16.30
2022-11-19T05:40:57.591Z,17.80
2022-11-19T05:43:24.863Z,18.75
2022-11-19T05:45:52.276Z,17.50
2022-11-19T05:48:19.470Z,16.13
2022-11-19T05:50:46.644Z,18.70
2022-11-19T05:53:13.768Z,16.92
2022-11-19T05:55:40.907Z,19.42
2022-11-19T05:58:08.041Z,18.00
2022-11-19T06:00:35.201Z,18.40
2022-11-19T06:03:02.426Z,21.88
2022-11-19T06:05:29.563Z,21.52
2022-11-19T06:07:56.779Z,19.83
2022-11-19T06:10:24.092Z,21.48
2022-11-19T06:12:54.076Z,23.63
2022-11-19T06:15:21.252Z,20.42
2022-11-19T06:17:48.457Z,21.95
2022-11-19T06:20:15.829Z,22.00
2022-11-19T06:22:43.049Z,19.92
2022-11-19T06:25:10.355Z,21.58
2022-11-19T06:27:37.687Z,22.70
2022-11-19T06:30:06.161Z,20.90
2022-11-19T06:32:33.597Z,22.25
2022-11-19T06:35:00.785Z,26.75
2022-11-19T06:37:28.038Z,25.77
2022-11-19T06:39:55.639Z,22.75
2022-11-19T06:42:38.091Z,26.77
2022-11-19T06:45:06.209Z,23.48
2022-11-19T06:47:34.324Z,23.27
2022-11-19T06:50:01.680Z,24.48
2022-11-19T06:52:29.361Z,23.35
2022-11-19T06:54:56.706Z,22.23
2022-11-19T06:57:23.923Z,24.77
2022-11-19T06:59:51.575Z,21.95
2022-11-19T07:02:21.395Z,22.98
2022-11-19T07:04:49.085Z,27.58
2022-11-19T07:07:16.484Z,25.52
2022-11-19T07:09:44.738Z,23.63
2022-11-19T07:12:11.845Z,25.30
2022-11-19T07:14:40.997Z,23.10
2022-11-19T07:17:08.139Z,23.95
2022-11-19T07:19:36.040Z,22.85
2022-11-19T07:22:03.361Z,24.42
2022-11-19T07:24:30.591Z,25.17
2022-11-19T07:26:57.812Z,23.15
2022-11-19T07:29:25.010Z,25.23
2022-11-19T07:31:53.469Z,23.80
2022-11-19T07:34:21.493Z,24.48
2022-11-19T07:36:50.321Z,22.95
2022-11-19T07:39:18.284Z,21.80
2022-11-19T07:42:04.210Z,21.25
2022-11-19T07:44:31.791Z,24.33
2022-11-19T07:46:59.288Z,23.60
2022-11-19T07:49:27.193Z,20.75
2022-11-19T07:51:55.043Z,26.38
2022-11-19T07:54:22.214Z,21.95
2022-11-19T07:56:49.857Z,22.98
2022-11-19T07:59:17.670Z,22.33
2022-11-19T08:01:45.448Z,23.05
2022-11-19T08:04:12.664Z,23.95
2022-11-19T08:06:39.891Z,21.38
2022-11-19T08:09:07.375Z,23.33
2022-11-19T08:11:34.497Z,21.52
2022-11-19T08:14:02.206Z,21.42
2022-11-19T08:16:47.970Z,18.92
2022-11-19T08:19:17.298Z,20.90
2022-11-19T08:21:47.051Z,21.92
2022-11-19T08:24:15.989Z,19.77
2022-11-19T08:26:43.315Z,20.30
2022-11-19T08:29:16.217Z,20.33
2022-11-19T08:31:45.936Z,21.20
2022-11-19T08:34:13.229Z,20.17
2022-11-19T08:36:40.587Z,21.98
2022-11-19T08:39:08.026Z,19.85
2022-11-19T08:41:53.852Z,20.75
2022-11-19T08:44:21.876Z,20.73
2022-11-19T08:46:50.382Z,20.73
2022-11-19T08:49:17.832Z,18.75
2022-11-19T08:51:44.996Z,18.00
2022-11-19T08:54:13.448Z,20.88
2022-11-19T08:56:40.857Z,20.27
2022-11-19T08:59:08.284Z,18.25
2022-11-19T09:01:36.040Z,18.73
2022-11-19T09:04:03.235Z,18.70
2022-11-19T09:06:30.389Z,21.73
2022-11-19T09:08:58.576Z,20.02
2022-11-19T09:11:26.015Z,20.65
2022-11-19T09:13:53.252Z,18.83
2022-11-19T09:16:20.311Z,19.80
2022-11-19T09:18:47.437Z,21.00
2022-11-19T09:21:15.230Z,21.20
2022-11-19T09:23:42.946Z,17.75
2022-11-19T09:26:15.679Z,20.88
2022-11-19T09:28:43.617Z,19.20
2022-11-19T09:31:16.885Z,17.50
2022-11-19T09:33:50.095Z,18.55
2022-11-19T09:36:18.767Z,17.45
2022-11-19T09:38:47.102Z,19.25
2022-11-19T09:41:40.988Z,18.27
2022-11-19T09:44:23.192Z,16.98
2022-11-19T09:46:53.598Z,16.35
2022-11-19T09:50:04.871Z,20.30
2022-11-19T09:52:37.497Z,18.17
2022-11-19T09:55:05.300Z,17.80
2022-11-19T09:57:47.141Z,15.80
2022-11-19T10:00:23.409Z,18.88
2022-11-19T10:02:50.997Z,17.70
2022-11-19T10:05:44.302Z,15.57
2022-11-19T10:08:35.398Z,17.90
2022-11-19T10:11:05.217Z,14.68
2022-11-19T10:13:51.761Z,14.95
2022-11-19T10:16:37.317Z,16.65
2022-11-19T10:19:16.753Z,17.83
2022-11-19T10:22:08.248Z,12.70
2022-11-19T10:24:51.720Z,16.67
2022-11-19T10:27:31.584Z,14.82
2022-11-19T10:30:02.446Z,14.20
2022-11-19T10:32:36.222Z,14.10
2022-11-19T10:35:15.220Z,19.65
2022-11-19T10:37:56.937Z,15.15
2022-11-19T10:40:29.854Z,14.70
2022-11-19T10:43:23.136Z,17.85
2022-11-19T10:45:51.146Z,14.80
2022-11-19T10:48:42.814Z,15.32
2022-11-19T10:51:33.859Z,13.45
2022-11-19T10:54:04.658Z,16.75
2022-11-19T10:56:39.197Z,16.63
2022-11-19T10:59:22.813Z,15.38
2022-11-19T11:01:55.908Z,17.25
2022-11-19T11:04:25.664Z,14.90
2022-11-19T11:06:54.623Z,15.55
2022-11-19T11:09:36.797Z,14.73
2022-11-19T11:12:42.070Z,15.57
2022-11-19T11:15:17.954Z,13.32
2022-11-19T11:17:49.823Z,13.52
2022-11-19T11:20:20.334Z,13.13
2022-11-19T11:22:50.524Z,14.45
2022-11-19T11:25:25.658Z,14.60
2022-11-19T11:28:06.746Z,14.45
2022-11-19T11:30:34.787Z,14.30
2022-11-19T11:33:28.240Z,15.07
2022-11-19T11:36:01.767Z,15.00
2022-11-19T11:38:29.864Z,15.32
2022-11-19T11:44:02.896Z,16.33
2022-11-19T11:47:00.995Z,15.80
2022-11-19T11:49:40.687Z,17.92
2022-11-19T11:52:39.234Z,16.20
2022-11-19T11:55:15.113Z,16.15
2022-11-19T11:57:54.003Z,14.48
2022-11-19T12:00:37.752Z,14.38
2022-11-19T12:03:07.969Z,14.95
2022-11-19T12:06:02.564Z,13.65
2022-11-19T12:08:53.587Z,14.15
2022-11-19T12:11:58.781Z,13.60
2022-11-19T12:17:13.272Z,13.43
2022-11-19T12:19:53.917Z,15.07
2022-11-19T12:22:44.999Z,12.80
2022-11-19T12:25:48.858Z,16.92
2022-11-19T12:28:49.408Z,13.32
2022-11-19T12:31:19.728Z,14.73
2022-11-19T12:34:01.705Z,16.65
2022-11-19T12:36:39.266Z,14.55
2022-11-19T12:39:23.206Z,15.13
2022-11-19T12:42:05.653Z,13.07
2022-11-19T12:44:32.888Z,13.02
2022-11-19T12:47:03.338Z,16.77
2022-11-19T12:49:42.900Z,16.15
2022-11-19T12:52:28.671Z,13.57
2022-11-19T12:54:58.598Z,17.42
2022-11-19T12:57:48.242Z,16.55
2022-11-19T13:00:15.742Z,15.27
2022-11-19T13:03:12.546Z,14.20
2022-11-19T13:06:00.704Z,13.70
2022-11-19T13:08:31.065Z,14.00
2022-11-19T13:11:36.615Z,14.52
2022-11-19T13:14:37.130Z,14.77
2022-11-19T13:17:10.363Z,14.13
2022-11-19T13:19:39.771Z,15.93
2022-11-19T13:22:21.458Z,15.55
2022-11-19T13:25:24.316Z,14.05
2022-11-19T13:27:54.967Z,13.50
2022-11-19T13:30:27.569Z,12.73
2022-11-19T13:33:01.904Z,14.95
2022-11-19T13:35:48.850Z,13.70
2022-11-19T13:38:45.184Z,14.95
2022-11-19T13:41:19.101Z,13.52
2022-11-19T13:44:05.299Z,13.48
2022-11-19T13:46:32.495Z,13.35
2022-11-19T13:49:26.750Z,15.20
2022-11-19T13:52:18.927Z,11.82
2022-11-19T13:54:46.388Z,12.48
2022-11-19T13:57:45.548Z,13.20
2022-11-19T14:00:27.999Z,13.50
2022-11-19T14:03:09.736Z,13.05
2022-11-19T14:05:48.933Z,13.40
2022-11-19T14:08:51.396Z,14.43
2022-11-19T14:12:02.796Z,13.15
2022-11-19T14:15:18.888Z,14.25
2022-11-19T14:18:25.486Z,12.45
2022-11-19T14:21:11.491Z,12.18
2022-11-19T14:24:01.615Z,11.70
2022-11-19T14:26:41.389Z,15.20
2022-11-19T14:29:28.673Z,15.93
2022-11-19T14:32:06.455Z,15.10
2022-11-19T14:34:35.160Z,15.63
2022-11-19T14:37:17.844Z,13.10
2022-11-19T14:39:49.256Z,16.63
2022-11-19T14:42:20.741Z,16.35
2022-11-19T14:45:07.684Z,14.25
2022-11-19T14:47:39.667Z,13.98
2022-11-19T14:50:27.849Z,14.20
2022-11-19T14:53:00.969Z,18.30
2022-11-19T14:55:34.512Z,14.00
2022-11-19T14:58:24.216Z,13.52
2022-11-19T15:01:08.046Z,13.57
2022-11-19T15:03:37.978Z,14.88
2022-11-19T15:06:08.020Z,15.63
2022-11-19T15:08:57.939Z,15.18
2022-11-19T15:11:45.223Z,14.57
2022-11-19T15:14:38.411Z,15.32
2022-11-19T15:17:08.252Z,15.05
2022-11-19T15:19:44.961Z,15.75
2022-11-19T15:22:57.531Z,12.45
2022-11-19T15:25:53.274Z,13.38
2022-11-19T15:29:06.377Z,13.63
2022-11-19T15:31:45.278Z,14.50
2022-11-19T15:34:48.772Z,13.50
2022-11-19T15:37:23.575Z,13.77
2022-11-19T15:39:56.697Z,14.55
2022-11-19T15:42:48.333Z,13.70
2022-11-19T15:45:22.591Z,14.32
2022-11-19T15:47:57.148Z,16.48
2022-11-19T15:50:25.829Z,15.07
2022-11-19T15:53:00.968Z,14.27
2022-11-19T15:55:33.870Z,16.35
2022-11-19T15:58:09.603Z,13.40
2022-11-19T16:00:46.211Z,15.57
2022-11-19T16:03:14.025Z,16.35
2022-11-19T16:05:45.114Z,16.45
2022-11-19T16:08:15.355Z,16.13
2022-11-19T16:10:47.215Z,15.27
2022-11-19T16:13:40.221Z,15.02
2022-11-19T16:16:35.224Z,14.07
2022-11-19T16:19:02.463Z,19.67
2022-11-19T16:21:33.995Z,14.07
2022-11-19T16:24:20.981Z,15.50
2022-11-19T16:26:48.873Z,13.90
2022-11-19T16:29:19.971Z,18.73
2022-11-19T16:31:50.932Z,15.45
2022-11-19T16:34:31.549Z,14.30
2022-11-19T16:36:59.393Z,16.02
2022-11-19T16:39:28.408Z,18.02
2022-11-19T16:42:17.388Z,18.60
2022-11-19T16:44:54.412Z,14.95
2022-11-19T16:47:29.822Z,16.45
2022-11-19T16:50:05.798Z,12.48
2022-11-19T16:52:43.620Z,17.17
2022-11-19T16:55:19.341Z,16.90
2022-11-19T16:57:48.930Z,15.73
2022-11-19T17:00:22.197Z,14.60
2022-11-19T17:02:51.337Z,17.50
2022-11-19T17:05:23.570Z,15.50
2022-11-19T17:07:53.234Z,16.05
2022-11-19T17:10:24.111Z,16.23
2022-11-19T17:12:54.079Z,14.65
2022-11-19T17:15:39.106Z,17.15
2022-11-19T17:18:21.689Z,16.15
2022-11-19T17:20:51.143Z,16.13
2022-11-19T17:23:33.258Z,16.00
2022-11-19T17:26:08.315Z,15.23
2022-11-19T17:28:45.424Z,12.23
2022-11-19T17:31:26.871Z,14.57
2022-11-19T17:34:04.652Z,14.40
2022-11-19T17:36:32.064Z,16.73
2022-11-19T17:39:02.380Z,14.60
2022-11-19T17:41:48.524Z,17.10
2022-11-19T17:44:40.550Z,15.77
2022-11-19T17:47:22.814Z,13.13
2022-11-19T17:49:52.525Z,14.63
2022-11-19T17:52:23.069Z,15.65
2022-11-19T17:54:51.660Z,14.27
2022-11-19T17:57:18.874Z,14.45
2022-11-19T17:59:46.235Z,13.80
2022-11-19T18:02:18.252Z,14.15
2022-11-19T18:04:46.984Z,15.98
2022-11-19T18:07:14.838Z,16.90
2022-11-19T18:09:42.442Z,16.95
2022-11-19T18:12:18.037Z,16.60
2022-11-19T18:14:47.138Z,13.95
2022-11-19T18:17:15.491Z,15.60
2022-11-19T18:19:42.729Z,13.70
2022-11-19T18:22:19.500Z,16.17
2022-11-19T18:24:48.701Z,12.73
2022-11-19T18:27:16.804Z,14.73
2022-11-19T18:29:44.135Z,14.60
2022-11-19T18:32:12.541Z,16.33
2022-11-19T18:34:39.774Z,16.83
2022-11-19T18:37:06.993Z,15.93
2022-11-19T18:39:35.073Z,15.65
2022-11-19T18:42:02.223Z,15.13
2022-11-19T18:44:35.472Z,15.18
2022-11-19T18:47:08.176Z,16.73
2022-11-19T18:49:35.451Z,18.83
2022-11-19T18:52:07.873Z,16.65
2022-11-19T18:54:35.534Z,14.00
2022-11-19T18:57:02.826Z,16.60
2022-11-19T18:59:32.927Z,16.08
2022-11-19T19:02:00.278Z,17.55
2022-11-19T19:04:27.661Z,16.83
2022-11-19T19:06:55.292Z,18.85
2022-11-19T19:09:22.956Z,18.05
2022-11-19T19:12:13.407Z,18.42
2022-11-19T19:14:42.476Z,22.95
2022-11-19T19:17:10.302Z,16.58
2022-11-19T19:19:38.003Z,16.92
2022-11-19T19:22:05.397Z,18.38
2022-11-19T19:24:33.117Z,18.90
2022-11-19T19:27:01.197Z,17.20
2022-11-19T19:29:28.719Z,18.27
2022-11-19T19:31:56.673Z,18.30
2022-11-19T19:34:23.875Z,17.58
2022-11-19T19:36:53.343Z,15.88
2022-11-19T19:39:22.427Z,14.98
2022-11-19T19:41:49.945Z,14.77
2022-11-19T19:44:17.246Z,15.90
2022-11-19T19:46:47.130Z,16.73
2022-11-19T19:49:14.731Z,16.83
2022-11-19T19:51:41.868Z,15.23
2022-11-19T19:54:09.127Z,15.30
2022-11-19T19:56:37.561Z,16.17
2022-11-19T19:59:04.888Z,13.75
2022-11-19T20:01:34.379Z,18.33
2022-11-19T20:04:07.844Z,14.90
2022-11-19T20:06:37.933Z,17.25
2022-11-19T20:09:09.032Z,12.82
2022-11-19T20:11:37.299Z,16.65
2022-11-19T20:14:05.241Z,15.07
2022-11-19T20:16:34.838Z,15.60
2022-11-19T20:19:02.586Z,14.52
2022-11-19T20:21:34.195Z,16.70
2022-11-19T20:24:02.513Z,17.38
2022-11-19T20:26:32.038Z,16.55
2022-11-19T20:29:01.701Z,13.90
2022-11-19T20:31:31.179Z,18.30
2022-11-19T20:34:00.711Z,17.88
2022-11-19T20:36:30.413Z,15.73
2022-11-19T20:39:00.566Z,14.50
2022-11-19T20:41:47.698Z,15.85
2022-11-19T20:44:23.478Z,17.38
2022-11-19T20:46:59.145Z,16.17
2022-11-19T20:49:31.709Z,18.02
2022-11-19T20:51:59.559Z,15.55
2022-11-19T20:54:27.596Z,15.98
2022-11-19T20:56:56.435Z,15.35
2022-11-19T20:59:25.596Z,13.88
2022-11-19T21:01:54.822Z,15.73
2022-11-19T21:04:23.676Z,17.15
2022-11-19T21:06:52.272Z,19.05
2022-11-19T21:09:20.275Z,15.02
2022-11-19T21:11:49.082Z,18.38
2022-11-19T21:14:17.367Z,17.98
2022-11-19T21:16:45.797Z,19.90
2022-11-19T21:19:15.997Z,18.33
2022-11-19T21:21:44.488Z,15.43
2022-11-19T21:24:12.172Z,17.45
2022-11-19T21:26:42.299Z,15.10
2022-11-19T21:29:09.484Z,17.83
2022-11-19T21:31:48.855Z,16.67
2022-11-19T21:34:18.738Z,15.35
2022-11-19T21:36:46.853Z,20.95
2022-11-19T21:39:16.507Z,13.45
2022-11-19T21:41:44.637Z,15.75
2022-11-19T21:44:18.057Z,16.88
2022-11-19T21:46:49.468Z,15.23
2022-11-19T21:49:16.802Z,15.82
2022-11-19T21:51:44.353Z,18.38
2022-11-19T21:54:13.305Z,18.45
2022-11-19T21:56:40.608Z,16.77
2022-11-19T21:59:08.080Z,19.20
2022-11-19T22:01:35.988Z,18.10
2022-11-19T22:04:04.914Z,16.90
2022-11-19T22:06:32.410Z,17.38
2022-11-19T22:08:59.611Z,16.75
2022-11-19T22:11:31.073Z,16.70
2022-11-19T22:14:02.279Z,17.65
2022-11-19T22:16:30.422Z,19.00
2022-11-19T22:18:57.684Z,17.50
2022-11-19T22:21:26.315Z,15.77
2022-11-19T22:23:53.718Z,17.58
2022-11-19T22:26:21.096Z,16.15
2022-11-19T22:28:48.426Z,16.27
2022-11-19T22:31:18.924Z,14.68
2022-11-19T22:33:48.140Z,17.08
2022-11-19T22:36:15.943Z,18.73
2022-11-19T22:38:43.082Z,16.23
2022-11-19T22:41:13.309Z,16.48
2022-11-19T22:43:41.300Z,19.10
2022-11-19T22:46:10.083Z,16.27
2022-11-19T22:48:37.827Z,17.80
2022-11-19T22:51:11.475Z,18.00
2022-11-19T22:53:41.671Z,17.98
2022-11-19T22:56:11.508Z,16.38
2022-11-19T22:58:39.473Z,15.88
2022-11-19T23:01:12.152Z,16.92
2022-11-19T23:03:39.928Z,15.32
2022-11-19T23:06:07.458Z,16.65
2022-11-19T23:08:34.695Z,15.45
2022-11-19T23:11:04.827Z,14.52
2022-11-19T23:13:34.923Z,14.20
2022-11-19T23:16:09.153Z,18.30
2022-11-19T23:18:40.559Z,15.50
2022-11-19T23:21:13.593Z,17.75
2022-11-19T23:23:41.022Z,17.42
2022-11-19T23:26:09.873Z,16.30
2022-11-19T23:28:37.869Z,18.45
2022-11-19T23:31:14.630Z,17.90
2022-11-19T23:33:42.212Z,16.25
2022-11-19T23:36:13.251Z,20.05
2022-11-19T23:38:40.674Z,16.48
2022-11-19T23:41:09.803Z,17.95
2022-11-19T23:43:40.210Z,16.05
2022-11-19T23:46:25.003Z,16.27
2022-11-19T23:48:53.072Z,18.40
2022-11-19T23:51:26.747Z,15.68
2022-11-19T23:53:54.287Z,21.17
2022-11-19T23:56:23.403Z,15.60
2022-11-19T23:58:51.224Z,15.13
